sensor_id;sensor_type;location;lat;lon;timestamp;P1;durP1;ratioP1;P2;durP2;ratioP2
22060;SDS011;11194;48.092;-1.382;2023-02-14T00:01:14;112.85;;;53.17;;
22060;SDS011;11194;48.092;-1.382;2023-02-14T00:03:40;93.30;;;48.20;;
22060;SDS011;11194;48.092;-1.382;2023-02-14T00:06:07;86.88;;;48.55;;
22060;SDS011;11194;48.092;-1.382;2023-02-14T00:08:33;71.50;;;39.75;;
22060;SDS011;11194;48.092;-1.382;2023-02-14T00:11:00;61.22;;;34.53;;
22060;SDS011;11194;48.092;-1.382;2023-02-14T00:13:26;63.83;;;35.90;;
22060;SDS011;11194;48.092;-1.382;2023-02-14T00:15:53;69.50;;;39.72;;
22060;SDS011;11194;48.092;-1.382;2023-02-14T00:18:19;68.72;;;41.63;;
22060;SDS011;11194;48.092;-1.382;2023-02-14T00:20:45;62.22;;;36.30;;
22060;SDS011;11194;48.092;-1.382;2023-02-14T00:23:11;81.53;;;43.72;;
22060;SDS011;11194;48.092;-1.382;2023-02-14T00:25:37;67.03;;;39.60;;
22060;SDS011;11194;48.092;-1.382;2023-02-14T00:28:03;74.93;;;41.67;;
22060;SDS011;11194;48.092;-1.382;2023-02-14T00:30:29;72.10;;;42.58;;
22060;SDS011;11194;48.092;-1.382;2023-02-14T00:32:55;59.40;;;34.95;;
22060;SDS011;11194;48.092;-1.382;2023-02-14T00:35:21;62.35;;;38.17;;
22060;SDS011;11194;48.092;-1.382;2023-02-14T00:37:47;59.08;;;35.72;;
22060;SDS011;11194;48.092;-1.382;2023-02-14T00:40:14;73.82;;;42.65;;
22060;SDS011;11194;48.092;-1.382;2023-02-14T00:42:40;74.22;;;42.95;;
22060;SDS011;11194;48.092;-1.382;2023-02-14T00:45:06;64.97;;;38.97;;
22060;SDS011;11194;48.092;-1.382;2023-02-14T00:47:32;68.38;;;42.83;;
22060;SDS011;11194;48.092;-1.382;2023-02-14T00:49:58;68.75;;;42.17;;
22060;SDS011;11194;48.092;-1.382;2023-02-14T00:52:27;69.50;;;43.08;;
22060;SDS011;11194;48.092;-1.382;2023-02-14T00:54:53;75.30;;;42.47;;
22060;SDS011;11194;48.092;-1.382;2023-02-14T00:57:20;65.32;;;41.17;;
22060;SDS011;11194;48.092;-1.382;2023-02-14T00:59:46;68.25;;;41.35;;
22060;SDS011;11194;48.092;-1.382;2023-02-14T01:02:12;67.70;;;39.55;;
22060;SDS011;11194;48.092;-1.382;2023-02-14T01:04:38;64.05;;;39.78;;
22060;SDS011;11194;48.092;-1.382;2023-02-14T01:07:04;63.25;;;37.80;;
22060;SDS011;11194;48.092;-1.382;2023-02-14T01:09:30;67.70;;;40.72;;
22060;SDS011;11194;48.092;-1.382;2023-02-14T01:11:56;74.97;;;43.33;;
22060;SDS011;11194;48.092;-1.382;2023-02-14T01:14:22;73.75;;;42.03;;
22060;SDS011;11194;48.092;-1.382;2023-02-14T01:16:48;69.05;;;39.22;;
22060;SDS011;11194;48.092;-1.382;2023-02-14T01:19:14;67.22;;;38.08;;
22060;SDS011;11194;48.092;-1.382;2023-02-14T01:21:40;68.25;;;38.03;;
22060;SDS011;11194;48.092;-1.382;2023-02-14T01:24:06;69.80;;;39.28;;
22060;SDS011;11194;48.092;-1.382;2023-02-14T01:26:33;67.70;;;39.33;;
22060;SDS011;11194;48.092;-1.382;2023-02-14T01:28:59;69.88;;;39.30;;
22060;SDS011;11194;48.092;-1.382;2023-02-14T01:31:26;73.15;;;40.67;;
22060;SDS011;11194;48.092;-1.382;2023-02-14T01:33:53;70.47;;;39.35;;
22060;SDS011;11194;48.092;-1.382;2023-02-14T01:36:20;67.55;;;40.72;;
22060;SDS011;11194;48.092;-1.382;2023-02-14T01:38:47;74.55;;;41.88;;
22060;SDS011;11194;48.092;-1.382;2023-02-14T01:41:13;73.13;;;38.38;;
22060;SDS011;11194;48.092;-1.382;2023-02-14T01:43:53;67.78;;;37.42;;
22060;SDS011;11194;48.092;-1.382;2023-02-14T01:46:20;61.42;;;31.23;;
22060;SDS011;11194;48.092;-1.382;2023-02-14T01:48:46;51.10;;;28.33;;
22060;SDS011;11194;48.092;-1.382;2023-02-14T01:51:13;43.45;;;24.38;;
22060;SDS011;11194;48.092;-1.382;2023-02-14T01:53:40;59.40;;;34.28;;
22060;SDS011;11194;48.092;-1.382;2023-02-14T01:56:07;49.88;;;27.15;;
22060;SDS011;11194;48.092;-1.382;2023-02-14T01:58:34;57.67;;;33.30;;
22060;SDS011;11194;48.092;-1.382;2023-02-14T02:01:02;65.15;;;35.05;;
22060;SDS011;11194;48.092;-1.382;2023-02-14T02:03:39;76.97;;;38.83;;
22060;SDS011;11194;48.092;-1.382;2023-02-14T02:08:33;65.68;;;39.38;;
22060;SDS011;11194;48.092;-1.382;2023-02-14T02:11:01;63.08;;;38.92;;
22060;SDS011;11194;48.092;-1.382;2023-02-14T02:13:28;58.03;;;34.75;;
22060;SDS011;11194;48.092;-1.382;2023-02-14T02:29:18;58.13;;;34.08;;
22060;SDS011;11194;48.092;-1.382;2023-02-14T05:01:06;44.30;;;22.95;;
22060;SDS011;11194;48.092;-1.382;2023-02-14T05:03:32;52.97;;;28.35;;
22060;SDS011;11194;48.092;-1.382;2023-02-14T05:05:58;55.15;;;30.90;;
22060;SDS011;11194;48.092;-1.382;2023-02-14T05:08:24;47.97;;;28.20;;
22060;SDS011;11194;48.092;-1.382;2023-02-14T05:10:50;33.70;;;20.17;;
22060;SDS011;11194;48.092;-1.382;2023-02-14T05:13:17;36.20;;;20.95;;
22060;SDS011;11194;48.092;-1.382;2023-02-14T05:15:43;40.25;;;23.40;;
22060;SDS011;11194;48.092;-1.382;2023-02-14T05:18:09;44.83;;;26.35;;
22060;SDS011;11194;48.092;-1.382;2023-02-14T05:20:35;51.03;;;26.25;;
22060;SDS011;11194;48.092;-1.382;2023-02-14T05:23:01;50.60;;;30.58;;
22060;SDS011;11194;48.092;-1.382;2023-02-14T05:25:29;51.00;;;31.30;;
22060;SDS011;11194;48.092;-1.382;2023-02-14T05:27:56;45.67;;;28.13;;
22060;SDS011;11194;48.092;-1.382;2023-02-14T05:30:22;45.65;;;25.77;;
22060;SDS011;11194;48.092;-1.382;2023-02-14T05:32:51;40.05;;;23.85;;
22060;SDS011;11194;48.092;-1.382;2023-02-14T05:35:18;43.28;;;25.60;;
22060;SDS011;11194;48.092;-1.382;2023-02-14T05:37:44;48.88;;;28.60;;
22060;SDS011;11194;48.092;-1.382;2023-02-14T05:40:10;50.80;;;27.60;;
22060;SDS011;11194;48.092;-1.382;2023-02-14T05:42:38;49.47;;;28.52;;
22060;SDS011;11194;48.092;-1.382;2023-02-14T05:45:04;55.50;;;30.08;;
22060;SDS011;11194;48.092;-1.382;2023-02-14T05:47:30;51.00;;;30.02;;
22060;SDS011;11194;48.092;-1.382;2023-02-14T05:49:56;52.70;;;29.80;;
22060;SDS011;11194;48.092;-1.382;2023-02-14T05:52:22;51.20;;;29.38;;
22060;SDS011;11194;48.092;-1.382;2023-02-14T05:54:48;48.38;;;28.52;;
22060;SDS011;11194;48.092;-1.382;2023-02-14T05:57:15;52.53;;;27.58;;
22060;SDS011;11194;48.092;-1.382;2023-02-14T05:59:41;49.45;;;29.80;;
22060;SDS011;11194;48.092;-1.382;2023-02-14T06:02:07;56.88;;;29.92;;
22060;SDS011;11194;48.092;-1.382;2023-02-14T06:04:33;46.63;;;27.33;;
22060;SDS011;11194;48.092;-1.382;2023-02-14T06:06:59;55.53;;;29.10;;
22060;SDS011;11194;48.092;-1.382;2023-02-14T06:09:25;52.83;;;28.15;;
22060;SDS011;11194;48.092;-1.382;2023-02-14T06:11:51;56.25;;;29.77;;
22060;SDS011;11194;48.092;-1.382;2023-02-14T06:14:18;49.97;;;28.73;;
22060;SDS011;11194;48.092;-1.382;2023-02-14T06:16:44;53.50;;;28.42;;
22060;SDS011;11194;48.092;-1.382;2023-02-14T06:19:10;54.75;;;29.33;;
22060;SDS011;11194;48.092;-1.382;2023-02-14T06:21:36;52.47;;;27.67;;
22060;SDS011;11194;48.092;-1.382;2023-02-14T06:24:02;49.10;;;27.20;;
22060;SDS011;11194;48.092;-1.382;2023-02-14T06:26:28;54.05;;;27.98;;
22060;SDS011;11194;48.092;-1.382;2023-02-14T06:28:54;47.67;;;26.42;;
22060;SDS011;11194;48.092;-1.382;2023-02-14T06:31:21;61.58;;;30.00;;
22060;SDS011;11194;48.092;-1.382;2023-02-14T06:33:47;54.20;;;31.92;;
22060;SDS011;11194;48.092;-1.382;2023-02-14T06:36:13;52.50;;;29.63;;
22060;SDS011;11194;48.092;-1.382;2023-02-14T06:38:39;56.17;;;25.60;;
22060;SDS011;11194;48.092;-1.382;2023-02-14T06:41:06;40.78;;;21.27;;
22060;SDS011;11194;48.092;-1.382;2023-02-14T06:43:33;43.53;;;21.20;;
22060;SDS011;11194;48.092;-1.382;2023-02-14T06:45:59;52.05;;;23.65;;
22060;SDS011;11194;48.092;-1.382;2023-02-14T06:48:25;50.90;;;25.05;;
22060;SDS011;11194;48.092;-1.382;2023-02-14T06:50:51;59.92;;;30.70;;
22060;SDS011;11194;48.092;-1.382;2023-02-14T06:53:17;55.65;;;30.33;;
22060;SDS011;11194;48.092;-1.382;2023-02-14T06:55:44;53.33;;;30.55;;
22060;SDS011;11194;48.092;-1.382;2023-02-14T06:58:10;57.33;;;31.75;;
22060;SDS011;11194;48.092;-1.382;2023-02-14T07:00:36;65.97;;;32.42;;
22060;SDS011;11194;48.092;-1.382;2023-02-14T07:03:03;73.13;;;37.47;;
22060;SDS011;11194;48.092;-1.382;2023-02-14T07:05:30;55.33;;;30.13;;
22060;SDS011;11194;48.092;-1.382;2023-02-14T07:07:56;56.28;;;30.63;;
22060;SDS011;11194;48.092;-1.382;2023-02-14T07:10:22;60.05;;;31.13;;
22060;SDS011;11194;48.092;-1.382;2023-02-14T07:12:48;63.53;;;34.42;;
22060;SDS011;11194;48.092;-1.382;2023-02-14T07:15:14;78.68;;;39.70;;
22060;SDS011;11194;48.092;-1.382;2023-02-14T07:17:40;55.83;;;28.65;;
22060;SDS011;11194;48.092;-1.382;2023-02-14T07:20:06;44.33;;;24.95;;
22060;SDS011;11194;48.092;-1.382;2023-02-14T07:22:33;44.15;;;22.85;;
22060;SDS011;11194;48.092;-1.382;2023-02-14T07:24:59;45.85;;;23.52;;
22060;SDS011;11194;48.092;-1.382;2023-02-14T07:27:25;28.02;;;14.40;;
22060;SDS011;11194;48.092;-1.382;2023-02-14T07:29:51;28.63;;;16.45;;
22060;SDS011;11194;48.092;-1.382;2023-02-14T07:32:17;33.55;;;20.42;;
22060;SDS011;11194;48.092;-1.382;2023-02-14T07:34:46;45.72;;;23.13;;
22060;SDS011;11194;48.092;-1.382;2023-02-14T07:37:13;29.00;;;12.18;;
22060;SDS011;11194;48.092;-1.382;2023-02-14T07:39:41;53.72;;;23.75;;
22060;SDS011;11194;48.092;-1.382;2023-02-14T07:42:07;51.45;;;25.15;;
22060;SDS011;11194;48.092;-1.382;2023-02-14T07:44:36;18.85;;;10.85;;
22060;SDS011;11194;48.092;-1.382;2023-02-14T07:47:06;25.75;;;13.80;;
22060;SDS011;11194;48.092;-1.382;2023-02-14T07:49:32;27.95;;;15.00;;
22060;SDS011;11194;48.092;-1.382;2023-02-14T07:51:58;41.83;;;21.85;;
22060;SDS011;11194;48.092;-1.382;2023-02-14T07:54:25;41.92;;;23.58;;
22060;SDS011;11194;48.092;-1.382;2023-02-14T07:56:51;39.50;;;21.63;;
22060;SDS011;11194;48.092;-1.382;2023-02-14T07:59:17;44.70;;;24.20;;
22060;SDS011;11194;48.092;-1.382;2023-02-14T08:01:43;39.70;;;19.92;;
22060;SDS011;11194;48.092;-1.382;2023-02-14T08:04:09;41.65;;;20.25;;
22060;SDS011;11194;48.092;-1.382;2023-02-14T08:06:37;23.63;;;13.30;;
22060;SDS011;11194;48.092;-1.382;2023-02-14T08:09:03;31.50;;;17.35;;
22060;SDS011;11194;48.092;-1.382;2023-02-14T08:11:30;24.35;;;11.93;;
22060;SDS011;11194;48.092;-1.382;2023-02-14T08:14:14;34.67;;;16.17;;
22060;SDS011;11194;48.092;-1.382;2023-02-14T08:16:40;36.85;;;21.52;;
22060;SDS011;11194;48.092;-1.382;2023-02-14T08:19:07;45.08;;;25.38;;
22060;SDS011;11194;48.092;-1.382;2023-02-14T08:21:33;32.45;;;19.95;;
22060;SDS011;11194;48.092;-1.382;2023-02-14T08:23:59;43.10;;;24.98;;
22060;SDS011;11194;48.092;-1.382;2023-02-14T08:26:25;44.63;;;24.08;;
22060;SDS011;11194;48.092;-1.382;2023-02-14T08:28:51;45.10;;;23.42;;
22060;SDS011;11194;48.092;-1.382;2023-02-14T08:31:29;48.40;;;23.77;;
22060;SDS011;11194;48.092;-1.382;2023-02-14T08:33:56;45.50;;;23.73;;
22060;SDS011;11194;48.092;-1.382;2023-02-14T08:36:22;49.03;;;25.17;;
22060;SDS011;11194;48.092;-1.382;2023-02-14T08:38:48;38.88;;;20.42;;
22060;SDS011;11194;48.092;-1.382;2023-02-14T08:41:15;40.35;;;19.98;;
22060;SDS011;11194;48.092;-1.382;2023-02-14T08:43:41;35.08;;;17.90;;
22060;SDS011;11194;48.092;-1.382;2023-02-14T08:46:07;49.22;;;22.60;;
22060;SDS011;11194;48.092;-1.382;2023-02-14T08:48:34;35.22;;;20.42;;
22060;SDS011;11194;48.092;-1.382;2023-02-14T08:51:06;43.95;;;23.10;;
22060;SDS011;11194;48.092;-1.382;2023-02-14T08:53:33;44.65;;;22.25;;
22060;SDS011;11194;48.092;-1.382;2023-02-14T08:56:06;48.10;;;26.15;;
22060;SDS011;11194;48.092;-1.382;2023-02-14T08:58:33;52.40;;;27.92;;
22060;SDS011;11194;48.092;-1.382;2023-02-14T09:01:00;49.67;;;25.15;;
22060;SDS011;11194;48.092;-1.382;2023-02-14T09:03:27;47.97;;;26.05;;
22060;SDS011;11194;48.092;-1.382;2023-02-14T09:05:53;46.70;;;26.48;;
22060;SDS011;11194;48.092;-1.382;2023-02-14T09:08:19;50.47;;;28.85;;
22060;SDS011;11194;48.092;-1.382;2023-02-14T09:10:45;39.42;;;20.65;;
22060;SDS011;11194;48.092;-1.382;2023-02-14T09:13:11;63.08;;;32.28;;
22060;SDS011;11194;48.092;-1.382;2023-02-14T09:15:39;65.25;;;31.27;;
22060;SDS011;11194;48.092;-1.382;2023-02-14T09:18:05;45.97;;;26.33;;
22060;SDS011;11194;48.092;-1.382;2023-02-14T09:20:31;47.88;;;26.55;;
22060;SDS011;11194;48.092;-1.382;2023-02-14T09:22:57;47.90;;;25.73;;
22060;SDS011;11194;48.092;-1.382;2023-02-14T09:25:23;48.75;;;27.10;;
22060;SDS011;11194;48.092;-1.382;2023-02-14T09:27:49;46.78;;;28.00;;
22060;SDS011;11194;48.092;-1.382;2023-02-14T09:30:15;43.45;;;25.92;;
22060;SDS011;11194;48.092;-1.382;2023-02-14T09:32:41;43.60;;;26.02;;
22060;SDS011;11194;48.092;-1.382;2023-02-14T09:35:07;37.97;;;22.48;;
22060;SDS011;11194;48.092;-1.382;2023-02-14T09:37:33;40.08;;;23.60;;
22060;SDS011;11194;48.092;-1.382;2023-02-14T09:39:59;41.35;;;22.92;;
22060;SDS011;11194;48.092;-1.382;2023-02-14T09:45:14;40.28;;;22.10;;
22060;SDS011;11194;48.092;-1.382;2023-02-14T09:50:24;39.45;;;22.75;;
22060;SDS011;11194;48.092;-1.382;2023-02-14T09:52:56;40.10;;;22.98;;
22060;SDS011;11194;48.092;-1.382;2023-02-14T09:55:22;34.40;;;19.92;;
22060;SDS011;11194;48.092;-1.382;2023-02-14T10:00:56;32.92;;;18.27;;
22060;SDS011;11194;48.092;-1.382;2023-02-14T10:03:47;34.80;;;19.92;;
22060;SDS011;11194;48.092;-1.382;2023-02-14T10:11:28;35.13;;;19.17;;
22060;SDS011;11194;48.092;-1.382;2023-02-14T10:13:58;33.08;;;18.33;;
22060;SDS011;11194;48.092;-1.382;2023-02-14T10:16:35;31.08;;;18.77;;
22060;SDS011;11194;48.092;-1.382;2023-02-14T10:19:04;34.17;;;19.85;;
22060;SDS011;11194;48.092;-1.382;2023-02-14T10:26:37;33.58;;;19.33;;
22060;SDS011;11194;48.092;-1.382;2023-02-14T10:29:06;31.40;;;18.90;;
22060;SDS011;11194;48.092;-1.382;2023-02-14T10:31:36;30.27;;;17.95;;
22060;SDS011;11194;48.092;-1.382;2023-02-14T10:34:07;30.38;;;18.80;;
22060;SDS011;11194;48.092;-1.382;2023-02-14T10:36:49;33.30;;;17.65;;
22060;SDS011;11194;48.092;-1.382;2023-02-14T10:41:57;33.88;;;18.52;;
22060;SDS011;11194;48.092;-1.382;2023-02-14T10:47:01;31.20;;;18.30;;
22060;SDS011;11194;48.092;-1.382;2023-02-14T10:49:48;30.20;;;17.50;;
22060;SDS011;11194;48.092;-1.382;2023-02-14T10:54:52;28.52;;;17.27;;
22060;SDS011;11194;48.092;-1.382;2023-02-14T10:57:26;32.95;;;17.60;;
22060;SDS011;11194;48.092;-1.382;2023-02-14T11:02:21;30.27;;;17.20;;
22060;SDS011;11194;48.092;-1.382;2023-02-14T11:04:48;31.55;;;18.08;;
22060;SDS011;11194;48.092;-1.382;2023-02-14T11:07:15;26.73;;;17.02;;
22060;SDS011;11194;48.092;-1.382;2023-02-14T11:09:41;28.42;;;17.02;;
22060;SDS011;11194;48.092;-1.382;2023-02-14T11:12:07;28.35;;;17.27;;
22060;SDS011;11194;48.092;-1.382;2023-02-14T11:14:35;27.17;;;16.30;;
22060;SDS011;11194;48.092;-1.382;2023-02-14T11:19:59;29.45;;;17.52;;
22060;SDS011;11194;48.092;-1.382;2023-02-14T11:22:29;29.33;;;17.80;;
22060;SDS011;11194;48.092;-1.382;2023-02-14T11:25:06;27.73;;;16.75;;
22060;SDS011;11194;48.092;-1.382;2023-02-14T11:27:32;28.85;;;17.20;;
22060;SDS011;11194;48.092;-1.382;2023-02-14T11:29:59;29.98;;;17.15;;
22060;SDS011;11194;48.092;-1.382;2023-02-14T11:32:27;30.95;;;17.48;;
22060;SDS011;11194;48.092;-1.382;2023-02-14T11:35:01;28.85;;;17.27;;
22060;SDS011;11194;48.092;-1.382;2023-02-14T11:37:29;30.13;;;17.80;;
22060;SDS011;11194;48.092;-1.382;2023-02-14T11:39:57;28.05;;;17.40;;
22060;SDS011;11194;48.092;-1.382;2023-02-14T11:42:43;29.55;;;16.73;;
22060;SDS011;11194;48.092;-1.382;2023-02-14T11:46:03;27.42;;;17.58;;
22060;SDS011;11194;48.092;-1.382;2023-02-14T11:50:40;28.83;;;15.98;;
22060;SDS011;11194;48.092;-1.382;2023-02-14T11:53:09;27.85;;;17.13;;
22060;SDS011;11194;48.092;-1.382;2023-02-14T11:55:37;26.83;;;16.52;;
22060;SDS011;11194;48.092;-1.382;2023-02-14T11:58:03;29.35;;;18.33;;
22060;SDS011;11194;48.092;-1.382;2023-02-14T12:00:30;27.73;;;16.90;;
22060;SDS011;11194;48.092;-1.382;2023-02-14T12:02:57;25.92;;;15.13;;
22060;SDS011;11194;48.092;-1.382;2023-02-14T12:05:43;27.42;;;16.27;;
22060;SDS011;11194;48.092;-1.382;2023-02-14T12:08:10;25.35;;;16.20;;
22060;SDS011;11194;48.092;-1.382;2023-02-14T12:10:37;26.08;;;16.05;;
22060;SDS011;11194;48.092;-1.382;2023-02-14T12:15:36;26.55;;;16.42;;
22060;SDS011;11194;48.092;-1.382;2023-02-14T12:23:44;26.65;;;16.23;;
22060;SDS011;11194;48.092;-1.382;2023-02-14T12:26:31;28.77;;;17.08;;
22060;SDS011;11194;48.092;-1.382;2023-02-14T12:31:24;29.10;;;16.73;;
22060;SDS011;11194;48.092;-1.382;2023-02-14T12:33:50;29.20;;;17.02;;
22060;SDS011;11194;48.092;-1.382;2023-02-14T12:41:33;26.13;;;16.58;;
22060;SDS011;11194;48.092;-1.382;2023-02-14T13:02:53;22.10;;;13.65;;
22060;SDS011;11194;48.092;-1.382;2023-02-14T13:10:42;19.95;;;12.38;;
22060;SDS011;11194;48.092;-1.382;2023-02-14T13:13:22;20.00;;;12.55;;
22060;SDS011;11194;48.092;-1.382;2023-02-14T13:21:05;20.80;;;14.07;;
22060;SDS011;11194;48.092;-1.382;2023-02-14T13:26:06;25.00;;;11.68;;
22060;SDS011;11194;48.092;-1.382;2023-02-14T13:28:35;21.27;;;14.43;;
22060;SDS011;11194;48.092;-1.382;2023-02-14T13:31:02;23.73;;;13.80;;
22060;SDS011;11194;48.092;-1.382;2023-02-14T13:36:16;25.45;;;14.93;;
22060;SDS011;11194;48.092;-1.382;2023-02-14T13:38:43;24.92;;;14.85;;
22060;SDS011;11194;48.092;-1.382;2023-02-14T13:41:10;21.25;;;14.02;;
22060;SDS011;11194;48.092;-1.382;2023-02-14T13:43:50;21.35;;;14.68;;
22060;SDS011;11194;48.092;-1.382;2023-02-14T13:46:20;22.73;;;13.10;;
22060;SDS011;11194;48.092;-1.382;2023-02-14T13:48:56;20.88;;;12.38;;
22060;SDS011;11194;48.092;-1.382;2023-02-14T13:51:41;23.85;;;13.63;;
22060;SDS011;11194;48.092;-1.382;2023-02-14T13:56:53;21.15;;;13.73;;
22060;SDS011;11194;48.092;-1.382;2023-02-14T13:59:32;23.90;;;13.65;;
22060;SDS011;11194;48.092;-1.382;2023-02-14T14:04:43;17.98;;;11.50;;
22060;SDS011;11194;48.092;-1.382;2023-02-14T14:07:30;19.85;;;13.57;;
22060;SDS011;11194;48.092;-1.382;2023-02-14T14:09:59;22.02;;;13.75;;
22060;SDS011;11194;48.092;-1.382;2023-02-14T14:17:31;25.33;;;15.77;;
22060;SDS011;11194;48.092;-1.382;2023-02-14T14:19:58;28.42;;;15.68;;
22060;SDS011;11194;48.092;-1.382;2023-02-14T14:22:25;28.35;;;17.00;;
22060;SDS011;11194;48.092;-1.382;2023-02-14T14:24:52;24.55;;;14.68;;
22060;SDS011;11194;48.092;-1.382;2023-02-14T14:27:23;21.88;;;13.35;;
22060;SDS011;11194;48.092;-1.382;2023-02-14T14:29:57;25.45;;;15.43;;
22060;SDS011;11194;48.092;-1.382;2023-02-14T14:34:55;20.80;;;12.32;;
22060;SDS011;11194;48.092;-1.382;2023-02-14T14:37:25;22.50;;;13.30;;
22060;SDS011;11194;48.092;-1.382;2023-02-14T14:39:53;20.70;;;14.07;;
22060;SDS011;11194;48.092;-1.382;2023-02-14T14:42:20;23.10;;;14.50;;
22060;SDS011;11194;48.092;-1.382;2023-02-14T14:44:55;21.83;;;12.68;;
22060;SDS011;11194;48.092;-1.382;2023-02-14T14:47:23;19.55;;;12.55;;
22060;SDS011;11194;48.092;-1.382;2023-02-14T14:50:02;19.88;;;12.40;;
22060;SDS011;11194;48.092;-1.382;2023-02-14T14:52:38;20.35;;;12.57;;
22060;SDS011;11194;48.092;-1.382;2023-02-14T14:55:06;21.80;;;13.10;;
22060;SDS011;11194;48.092;-1.382;2023-02-14T14:57:36;18.42;;;11.88;;
22060;SDS011;11194;48.092;-1.382;2023-02-14T15:00:12;21.05;;;13.20;;
22060;SDS011;11194;48.092;-1.382;2023-02-14T15:02:42;17.40;;;11.25;;
22060;SDS011;11194;48.092;-1.382;2023-02-14T15:05:27;21.17;;;13.38;;
22060;SDS011;11194;48.092;-1.382;2023-02-14T15:07:53;20.50;;;12.35;;
22060;SDS011;11194;48.092;-1.382;2023-02-14T15:10:30;14.30;;;9.65;;
22060;SDS011;11194;48.092;-1.382;2023-02-14T15:12:57;20.05;;;12.93;;
22060;SDS011;11194;48.092;-1.382;2023-02-14T15:15:46;21.52;;;13.43;;
22060;SDS011;11194;48.092;-1.382;2023-02-14T15:18:13;21.98;;;13.43;;
22060;SDS011;11194;48.092;-1.382;2023-02-14T15:20:39;21.95;;;14.05;;
22060;SDS011;11194;48.092;-1.382;2023-02-14T15:23:06;23.20;;;13.82;;
22060;SDS011;11194;48.092;-1.382;2023-02-14T15:25:40;20.48;;;13.35;;
22060;SDS011;11194;48.092;-1.382;2023-02-14T15:28:11;20.05;;;12.95;;
22060;SDS011;11194;48.092;-1.382;2023-02-14T15:30:38;18.77;;;12.63;;
22060;SDS011;11194;48.092;-1.382;2023-02-14T15:33:08;20.95;;;13.30;;
22060;SDS011;11194;48.092;-1.382;2023-02-14T15:35:35;18.75;;;10.98;;
22060;SDS011;11194;48.092;-1.382;2023-02-14T15:38:06;27.75;;;15.80;;
22060;SDS011;11194;48.092;-1.382;2023-02-14T15:40:35;25.17;;;16.65;;
22060;SDS011;11194;48.092;-1.382;2023-02-14T15:45:50;24.25;;;15.50;;
22060;SDS011;11194;48.092;-1.382;2023-02-14T15:48:18;30.35;;;17.95;;
22060;SDS011;11194;48.092;-1.382;2023-02-14T15:50:48;31.38;;;18.60;;
22060;SDS011;11194;48.092;-1.382;2023-02-14T15:55:47;28.65;;;18.08;;
22060;SDS011;11194;48.092;-1.382;2023-02-14T15:58:17;29.90;;;19.00;;
22060;SDS011;11194;48.092;-1.382;2023-02-14T16:00:44;31.13;;;18.98;;
22060;SDS011;11194;48.092;-1.382;2023-02-14T16:03:12;30.65;;;18.35;;
22060;SDS011;11194;48.092;-1.382;2023-02-14T16:05:47;33.85;;;18.65;;
22060;SDS011;11194;48.092;-1.382;2023-02-14T16:08:30;30.25;;;18.92;;
22060;SDS011;11194;48.092;-1.382;2023-02-14T16:11:11;27.88;;;17.42;;
22060;SDS011;11194;48.092;-1.382;2023-02-14T16:13:39;30.40;;;18.42;;
22060;SDS011;11194;48.092;-1.382;2023-02-14T16:16:07;31.92;;;19.05;;
22060;SDS011;11194;48.092;-1.382;2023-02-14T16:21:13;31.17;;;18.75;;
22060;SDS011;11194;48.092;-1.382;2023-02-14T16:23:39;35.10;;;19.85;;
22060;SDS011;11194;48.092;-1.382;2023-02-14T16:26:06;30.65;;;19.20;;
22060;SDS011;11194;48.092;-1.382;2023-02-14T16:28:32;31.65;;;20.05;;
22060;SDS011;11194;48.092;-1.382;2023-02-14T16:31:00;33.53;;;19.67;;
22060;SDS011;11194;48.092;-1.382;2023-02-14T16:33:34;32.97;;;20.08;;
22060;SDS011;11194;48.092;-1.382;2023-02-14T16:36:04;36.78;;;21.90;;
22060;SDS011;11194;48.092;-1.382;2023-02-14T16:38:34;35.25;;;21.40;;
22060;SDS011;11194;48.092;-1.382;2023-02-14T16:41:01;37.00;;;23.05;;
22060;SDS011;11194;48.092;-1.382;2023-02-14T16:43:27;36.13;;;22.27;;
22060;SDS011;11194;48.092;-1.382;2023-02-14T16:45:53;38.90;;;23.75;;
22060;SDS011;11194;48.092;-1.382;2023-02-14T16:48:19;41.67;;;24.73;;
22060;SDS011;11194;48.092;-1.382;2023-02-14T16:50:45;40.65;;;25.80;;
22060;SDS011;11194;48.092;-1.382;2023-02-14T16:53:22;40.95;;;25.95;;
22060;SDS011;11194;48.092;-1.382;2023-02-14T16:55:49;43.50;;;25.08;;
22060;SDS011;11194;48.092;-1.382;2023-02-14T16:58:16;45.05;;;26.65;;
22060;SDS011;11194;48.092;-1.382;2023-02-14T17:00:43;42.92;;;26.23;;
22060;SDS011;11194;48.092;-1.382;2023-02-14T17:03:09;44.00;;;23.38;;
22060;SDS011;11194;48.092;-1.382;2023-02-14T17:05:35;41.72;;;23.75;;
22060;SDS011;11194;48.092;-1.382;2023-02-14T17:08:03;46.80;;;27.20;;
22060;SDS011;11194;48.092;-1.382;2023-02-14T17:10:30;49.35;;;28.52;;
22060;SDS011;11194;48.092;-1.382;2023-02-14T17:12:57;50.40;;;29.02;;
22060;SDS011;11194;48.092;-1.382;2023-02-14T17:15:24;44.42;;;27.73;;
22060;SDS011;11194;48.092;-1.382;2023-02-14T17:17:53;45.50;;;27.33;;
22060;SDS011;11194;48.092;-1.382;2023-02-14T17:20:20;50.28;;;29.92;;
22060;SDS011;11194;48.092;-1.382;2023-02-14T17:22:48;37.28;;;22.23;;
22060;SDS011;11194;48.092;-1.382;2023-02-14T17:25:14;47.63;;;28.23;;
22060;SDS011;11194;48.092;-1.382;2023-02-14T17:27:40;41.17;;;21.83;;
22060;SDS011;11194;48.092;-1.382;2023-02-14T17:30:09;55.05;;;30.35;;
22060;SDS011;11194;48.092;-1.382;2023-02-14T17:32:35;47.33;;;28.85;;
22060;SDS011;11194;48.092;-1.382;2023-02-14T17:35:01;47.53;;;27.33;;
22060;SDS011;11194;48.092;-1.382;2023-02-14T17:37:30;47.33;;;27.92;;
22060;SDS011;11194;48.092;-1.382;2023-02-14T17:39:56;52.33;;;29.50;;
22060;SDS011;11194;48.092;-1.382;2023-02-14T17:42:22;47.90;;;28.88;;
22060;SDS011;11194;48.092;-1.382;2023-02-14T17:44:48;50.55;;;29.58;;
22060;SDS011;11194;48.092;-1.382;2023-02-14T17:47:14;49.25;;;29.65;;
22060;SDS011;11194;48.092;-1.382;2023-02-14T17:49:43;58.25;;;33.13;;
22060;SDS011;11194;48.092;-1.382;2023-02-14T17:52:11;57.90;;;32.10;;
22060;SDS011;11194;48.092;-1.382;2023-02-14T17:54:37;55.75;;;33.38;;
22060;SDS011;11194;48.092;-1.382;2023-02-14T17:57:03;50.83;;;30.17;;
22060;SDS011;11194;48.092;-1.382;2023-02-14T17:59:30;49.25;;;29.73;;
22060;SDS011;11194;48.092;-1.382;2023-02-14T18:01:56;48.67;;;29.35;;
22060;SDS011;11194;48.092;-1.382;2023-02-14T18:04:23;54.80;;;31.52;;
22060;SDS011;11194;48.092;-1.382;2023-02-14T18:06:49;55.00;;;31.25;;
22060;SDS011;11194;48.092;-1.382;2023-02-14T18:09:15;53.95;;;31.08;;
22060;SDS011;11194;48.092;-1.382;2023-02-14T18:11:43;58.80;;;31.67;;
22060;SDS011;11194;48.092;-1.382;2023-02-14T18:14:09;46.60;;;28.73;;
22060;SDS011;11194;48.092;-1.382;2023-02-14T18:16:39;49.35;;;27.50;;
22060;SDS011;11194;48.092;-1.382;2023-02-14T18:19:05;52.95;;;31.48;;
22060;SDS011;11194;48.092;-1.382;2023-02-14T18:21:34;57.35;;;33.63;;
22060;SDS011;11194;48.092;-1.382;2023-02-14T18:24:03;63.50;;;35.22;;
22060;SDS011;11194;48.092;-1.382;2023-02-14T18:26:30;63.78;;;34.20;;
22060;SDS011;11194;48.092;-1.382;2023-02-14T18:28:56;58.47;;;33.55;;
22060;SDS011;11194;48.092;-1.382;2023-02-14T18:31:23;58.60;;;33.03;;
22060;SDS011;11194;48.092;-1.382;2023-02-14T18:33:50;63.17;;;34.70;;
22060;SDS011;11194;48.092;-1.382;2023-02-14T18:36:18;59.70;;;32.55;;
22060;SDS011;11194;48.092;-1.382;2023-02-14T18:38:45;62.45;;;34.35;;
22060;SDS011;11194;48.092;-1.382;2023-02-14T18:41:12;56.95;;;33.33;;
22060;SDS011;11194;48.092;-1.382;2023-02-14T18:43:38;55.40;;;32.72;;
22060;SDS011;11194;48.092;-1.382;2023-02-14T18:46:08;53.53;;;29.85;;